sensor_id;sensor_type;location;lat;lon;timestamp;P1;durP1;ratioP1;P2;durP2;ratioP2
57577;SDS011;43413;-33.790;150.826;2022-07-04T00:01:32;2.75;;;0.60;;
57577;SDS011;43413;-33.790;150.826;2022-07-04T00:03:59;1.92;;;0.50;;
57577;SDS011;43413;-33.790;150.826;2022-07-04T00:06:26;1.05;;;0.50;;
57577;SDS011;43413;-33.790;150.826;2022-07-04T00:08:53;5.88;;;0.77;;
57577;SDS011;43413;-33.790;150.826;2022-07-04T00:11:21;2.70;;;0.82;;
57577;SDS011;43413;-33.790;150.826;2022-07-04T00:13:48;2.85;;;0.60;;
57577;SDS011;43413;-33.790;150.826;2022-07-04T00:16:15;3.75;;;0.90;;
57577;SDS011;43413;-33.790;150.826;2022-07-04T00:18:42;2.25;;;0.73;;
57577;SDS011;43413;-33.790;150.826;2022-07-04T00:21:09;4.60;;;0.77;;
57577;SDS011;43413;-33.790;150.826;2022-07-04T00:23:36;4.47;;;1.02;;
57577;SDS011;43413;-33.790;150.826;2022-07-04T00:26:03;3.30;;;1.00;;
57577;SDS011;43413;-33.790;150.826;2022-07-04T00:28:31;4.38;;;1.30;;
57577;SDS011;43413;-33.790;150.826;2022-07-04T00:30:58;4.43;;;2.28;;
57577;SDS011;43413;-33.790;150.826;2022-07-04T00:33:25;4.78;;;1.40;;
57577;SDS011;43413;-33.790;150.826;2022-07-04T00:35:52;4.78;;;1.40;;
57577;SDS011;43413;-33.790;150.826;2022-07-04T00:38:19;4.47;;;0.80;;
57577;SDS011;43413;-33.790;150.826;2022-07-04T00:40:46;2.45;;;0.70;;
57577;SDS011;43413;-33.790;150.826;2022-07-04T00:43:20;3.58;;;0.70;;
57577;SDS011;43413;-33.790;150.826;2022-07-04T00:45:47;3.60;;;0.68;;
57577;SDS011;43413;-33.790;150.826;2022-07-04T00:48:15;3.55;;;0.70;;
57577;SDS011;43413;-33.790;150.826;2022-07-04T00:50:43;3.90;;;0.73;;
57577;SDS011;43413;-33.790;150.826;2022-07-04T00:53:10;2.90;;;0.60;;
57577;SDS011;43413;-33.790;150.826;2022-07-04T00:55:37;4.20;;;0.70;;
57577;SDS011;43413;-33.790;150.826;2022-07-04T00:58:05;3.10;;;0.68;;
57577;SDS011;43413;-33.790;150.826;2022-07-04T01:00:33;2.55;;;0.70;;
57577;SDS011;43413;-33.790;150.826;2022-07-04T01:03:00;4.45;;;0.70;;
57577;SDS011;43413;-33.790;150.826;2022-07-04T01:05:27;3.85;;;0.63;;
57577;SDS011;43413;-33.790;150.826;2022-07-04T01:07:54;3.10;;;0.60;;
57577;SDS011;43413;-33.790;150.826;2022-07-04T01:10:22;4.25;;;0.60;;
57577;SDS011;43413;-33.790;150.826;2022-07-04T01:12:49;4.15;;;0.70;;
57577;SDS011;43413;-33.790;150.826;2022-07-04T01:15:16;1.50;;;0.75;;
57577;SDS011;43413;-33.790;150.826;2022-07-04T01:17:44;4.00;;;0.70;;
57577;SDS011;43413;-33.790;150.826;2022-07-04T01:20:14;4.30;;;0.88;;
57577;SDS011;43413;-33.790;150.826;2022-07-04T01:22:41;4.43;;;1.17;;
57577;SDS011;43413;-33.790;150.826;2022-07-04T01:25:09;4.80;;;0.90;;
57577;SDS011;43413;-33.790;150.826;2022-07-04T01:27:36;1.33;;;0.50;;
57577;SDS011;43413;-33.790;150.826;2022-07-04T01:30:03;3.20;;;0.77;;
57577;SDS011;43413;-33.790;150.826;2022-07-04T01:32:30;1.38;;;0.80;;
57577;SDS011;43413;-33.790;150.826;2022-07-04T01:34:58;6.30;;;0.88;;
57577;SDS011;43413;-33.790;150.826;2022-07-04T01:37:25;3.05;;;1.00;;
57577;SDS011;43413;-33.790;150.826;2022-07-04T01:39:52;2.45;;;0.75;;
57577;SDS011;43413;-33.790;150.826;2022-07-04T01:42:19;5.57;;;0.68;;
57577;SDS011;43413;-33.790;150.826;2022-07-04T01:44:49;5.75;;;1.00;;
57577;SDS011;43413;-33.790;150.826;2022-07-04T01:47:16;2.50;;;0.88;;
57577;SDS011;43413;-33.790;150.826;2022-07-04T01:49:43;6.07;;;0.70;;
57577;SDS011;43413;-33.790;150.826;2022-07-04T01:52:11;2.88;;;0.80;;
57577;SDS011;43413;-33.790;150.826;2022-07-04T01:54:38;5.90;;;0.77;;
57577;SDS011;43413;-33.790;150.826;2022-07-04T01:57:06;3.72;;;0.75;;
57577;SDS011;43413;-33.790;150.826;2022-07-04T01:59:33;1.92;;;0.68;;
57577;SDS011;43413;-33.790;150.826;2022-07-04T02:02:18;2.45;;;0.60;;
57577;SDS011;43413;-33.790;150.826;2022-07-04T02:04:45;3.03;;;0.70;;
57577;SDS011;43413;-33.790;150.826;2022-07-04T02:07:12;1.92;;;0.80;;
57577;SDS011;43413;-33.790;150.826;2022-07-04T02:09:39;1.92;;;0.63;;
57577;SDS011;43413;-33.790;150.826;2022-07-04T02:12:07;0.77;;;0.40;;
57577;SDS011;43413;-33.790;150.826;2022-07-04T02:14:53;1.10;;;0.55;;
57577;SDS011;43413;-33.790;150.826;2022-07-04T02:17:20;2.15;;;0.60;;
57577;SDS011;43413;-33.790;150.826;2022-07-04T02:19:47;2.38;;;0.80;;
57577;SDS011;43413;-33.790;150.826;2022-07-04T02:22:15;5.18;;;0.90;;
57577;SDS011;43413;-33.790;150.826;2022-07-04T02:24:42;4.63;;;0.95;;
57577;SDS011;43413;-33.790;150.826;2022-07-04T02:27:09;5.38;;;1.10;;
57577;SDS011;43413;-33.790;150.826;2022-07-04T02:29:37;4.38;;;0.80;;
57577;SDS011;43413;-33.790;150.826;2022-07-04T02:32:04;4.35;;;0.88;;
57577;SDS011;43413;-33.790;150.826;2022-07-04T02:34:31;5.72;;;0.75;;
57577;SDS011;43413;-33.790;150.826;2022-07-04T02:36:59;3.97;;;0.60;;
57577;SDS011;43413;-33.790;150.826;2022-07-04T02:39:26;3.05;;;0.80;;
57577;SDS011;43413;-33.790;150.826;2022-07-04T02:41:53;5.03;;;0.65;;
57577;SDS011;43413;-33.790;150.826;2022-07-04T02:44:20;6.72;;;0.90;;
57577;SDS011;43413;-33.790;150.826;2022-07-04T02:46:47;4.25;;;0.82;;
57577;SDS011;43413;-33.790;150.826;2022-07-04T02:49:14;3.42;;;1.00;;
57577;SDS011;43413;-33.790;150.826;2022-07-04T02:51:41;3.53;;;1.10;;
57577;SDS011;43413;-33.790;150.826;2022-07-04T02:54:09;2.58;;;1.10;;
57577;SDS011;43413;-33.790;150.826;2022-07-04T02:56:36;2.88;;;1.00;;
57577;SDS011;43413;-33.790;150.826;2022-07-04T02:59:03;8.90;;;1.17;;
57577;SDS011;43413;-33.790;150.826;2022-07-04T03:01:30;5.65;;;0.90;;
57577;SDS011;43413;-33.790;150.826;2022-07-04T03:03:57;6.32;;;0.75;;
57577;SDS011;43413;-33.790;150.826;2022-07-04T03:06:25;2.72;;;0.68;;
57577;SDS011;43413;-33.790;150.826;2022-07-04T03:08:52;3.17;;;0.70;;
57577;SDS011;43413;-33.790;150.826;2022-07-04T03:11:19;2.88;;;0.70;;
57577;SDS011;43413;-33.790;150.826;2022-07-04T03:13:47;19.83;;;1.10;;
57577;SDS011;43413;-33.790;150.826;2022-07-04T03:16:14;2.95;;;0.70;;
57577;SDS011;43413;-33.790;150.826;2022-07-04T03:18:41;1.80;;;0.60;;
57577;SDS011;43413;-33.790;150.826;2022-07-04T03:21:08;2.08;;;0.52;;
57577;SDS011;43413;-33.790;150.826;2022-07-04T03:23:35;1.70;;;0.50;;
57577;SDS011;43413;-33.790;150.826;2022-07-04T03:26:02;1.33;;;0.65;;
57577;SDS011;43413;-33.790;150.826;2022-07-04T03:28:29;5.80;;;1.30;;
57577;SDS011;43413;-33.790;150.826;2022-07-04T03:30:57;6.28;;;1.50;;
57577;SDS011;43413;-33.790;150.826;2022-07-04T03:33:24;7.10;;;2.00;;
57577;SDS011;43413;-33.790;150.826;2022-07-04T03:35:51;4.95;;;1.80;;
57577;SDS011;43413;-33.790;150.826;2022-07-04T03:38:19;3.00;;;1.30;;
57577;SDS011;43413;-33.790;150.826;2022-07-04T03:40:46;2.30;;;1.17;;
57577;SDS011;43413;-33.790;150.826;2022-07-04T03:43:13;2.22;;;1.48;;
57577;SDS011;43413;-33.790;150.826;2022-07-04T03:45:40;2.28;;;1.20;;
57577;SDS011;43413;-33.790;150.826;2022-07-04T03:48:07;3.38;;;1.20;;
57577;SDS011;43413;-33.790;150.826;2022-07-04T03:50:35;1.42;;;0.80;;
57577;SDS011;43413;-33.790;150.826;2022-07-04T03:53:02;5.63;;;1.00;;
57577;SDS011;43413;-33.790;150.826;2022-07-04T03:55:29;3.42;;;0.95;;
57577;SDS011;43413;-33.790;150.826;2022-07-04T03:57:56;2.25;;;0.80;;
57577;SDS011;43413;-33.790;150.826;2022-07-04T04:00:23;3.80;;;1.40;;
57577;SDS011;43413;-33.790;150.826;2022-07-04T04:02:51;6.85;;;1.15;;
57577;SDS011;43413;-33.790;150.826;2022-07-04T04:05:18;16.45;;;1.48;;
57577;SDS011;43413;-33.790;150.826;2022-07-04T04:07:56;7.57;;;1.70;;
57577;SDS011;43413;-33.790;150.826;2022-07-04T04:10:24;8.05;;;1.45;;
57577;SDS011;43413;-33.790;150.826;2022-07-04T04:12:52;11.25;;;1.48;;
57577;SDS011;43413;-33.790;150.826;2022-07-04T04:15:19;13.30;;;1.58;;
57577;SDS011;43413;-33.790;150.826;2022-07-04T04:17:46;5.25;;;1.00;;
57577;SDS011;43413;-33.790;150.826;2022-07-04T04:20:13;6.47;;;1.10;;
57577;SDS011;43413;-33.790;150.826;2022-07-04T04:22:40;4.82;;;0.80;;
57577;SDS011;43413;-33.790;150.826;2022-07-04T04:25:07;5.20;;;0.85;;
57577;SDS011;43413;-33.790;150.826;2022-07-04T04:27:35;3.38;;;0.80;;
57577;SDS011;43413;-33.790;150.826;2022-07-04T04:30:02;2.83;;;0.90;;
57577;SDS011;43413;-33.790;150.826;2022-07-04T04:32:29;4.57;;;0.70;;
57577;SDS011;43413;-33.790;150.826;2022-07-04T04:34:57;3.45;;;1.40;;
57577;SDS011;43413;-33.790;150.826;2022-07-04T04:37:24;3.58;;;1.77;;
57577;SDS011;43413;-33.790;150.826;2022-07-04T04:39:51;4.72;;;1.60;;
57577;SDS011;43413;-33.790;150.826;2022-07-04T04:42:19;12.63;;;1.25;;
57577;SDS011;43413;-33.790;150.826;2022-07-04T04:44:46;7.63;;;1.60;;
57577;SDS011;43413;-33.790;150.826;2022-07-04T04:47:13;3.72;;;0.75;;
57577;SDS011;43413;-33.790;150.826;2022-07-04T04:49:40;2.65;;;0.68;;
57577;SDS011;43413;-33.790;150.826;2022-07-04T04:52:07;2.25;;;0.70;;
57577;SDS011;43413;-33.790;150.826;2022-07-04T04:54:35;10.68;;;0.80;;
57577;SDS011;43413;-33.790;150.826;2022-07-04T04:57:02;1.67;;;0.50;;
57577;SDS011;43413;-33.790;150.826;2022-07-04T04:59:30;3.38;;;0.50;;
57577;SDS011;43413;-33.790;150.826;2022-07-04T05:01:57;4.85;;;0.60;;
57577;SDS011;43413;-33.790;150.826;2022-07-04T05:04:24;1.60;;;0.50;;
57577;SDS011;43413;-33.790;150.826;2022-07-04T05:06:52;0.77;;;0.38;;
57577;SDS011;43413;-33.790;150.826;2022-07-04T05:09:19;1.10;;;0.50;;
57577;SDS011;43413;-33.790;150.826;2022-07-04T05:11:46;2.10;;;0.50;;
57577;SDS011;43413;-33.790;150.826;2022-07-04T05:14:14;3.67;;;0.50;;
57577;SDS011;43413;-33.790;150.826;2022-07-04T05:16:41;2.85;;;0.50;;
57577;SDS011;43413;-33.790;150.826;2022-07-04T05:19:08;1.73;;;0.65;;
57577;SDS011;43413;-33.790;150.826;2022-07-04T05:21:36;2.25;;;0.60;;
57577;SDS011;43413;-33.790;150.826;2022-07-04T05:24:03;1.38;;;0.65;;
57577;SDS011;43413;-33.790;150.826;2022-07-04T05:26:31;4.15;;;0.50;;
57577;SDS011;43413;-33.790;150.826;2022-07-04T05:28:58;1.55;;;0.40;;
57577;SDS011;43413;-33.790;150.826;2022-07-04T05:31:25;2.42;;;0.47;;
57577;SDS011;43413;-33.790;150.826;2022-07-04T05:33:52;4.60;;;0.50;;
57577;SDS011;43413;-33.790;150.826;2022-07-04T05:36:20;2.55;;;0.50;;
57577;SDS011;43413;-33.790;150.826;2022-07-04T05:38:47;3.15;;;0.50;;
57577;SDS011;43413;-33.790;150.826;2022-07-04T05:41:14;2.55;;;0.60;;
57577;SDS011;43413;-33.790;150.826;2022-07-04T05:43:42;7.38;;;0.73;;
57577;SDS011;43413;-33.790;150.826;2022-07-04T05:46:09;0.82;;;0.50;;
57577;SDS011;43413;-33.790;150.826;2022-07-04T05:48:36;3.88;;;1.20;;
57577;SDS011;43413;-33.790;150.826;2022-07-04T05:51:03;1.52;;;0.60;;
57577;SDS011;43413;-33.790;150.826;2022-07-04T05:53:31;2.92;;;0.70;;
57577;SDS011;43413;-33.790;150.826;2022-07-04T05:55:58;2.72;;;0.70;;
57577;SDS011;43413;-33.790;150.826;2022-07-04T05:58:25;2.92;;;0.70;;
57577;SDS011;43413;-33.790;150.826;2022-07-04T06:00:53;2.08;;;0.73;;
57577;SDS011;43413;-33.790;150.826;2022-07-04T06:03:20;3.10;;;0.63;;
57577;SDS011;43413;-33.790;150.826;2022-07-04T06:05:47;0.50;;;0.38;;
57577;SDS011;43413;-33.790;150.826;2022-07-04T06:08:14;1.13;;;0.47;;
57577;SDS011;43413;-33.790;150.826;2022-07-04T06:10:44;16.17;;;1.17;;
57577;SDS011;43413;-33.790;150.826;2022-07-04T06:13:11;5.38;;;0.90;;
57577;SDS011;43413;-33.790;150.826;2022-07-04T06:15:38;6.68;;;1.05;;
57577;SDS011;43413;-33.790;150.826;2022-07-04T06:18:06;4.63;;;0.73;;
57577;SDS011;43413;-33.790;150.826;2022-07-04T06:20:33;3.83;;;0.73;;
57577;SDS011;43413;-33.790;150.826;2022-07-04T06:23:01;1.13;;;0.70;;
57577;SDS011;43413;-33.790;150.826;2022-07-04T06:25:29;0.75;;;0.40;;
57577;SDS011;43413;-33.790;150.826;2022-07-04T06:27:56;1.10;;;0.50;;
57577;SDS011;43413;-33.790;150.826;2022-07-04T06:30:23;3.33;;;0.80;;
57577;SDS011;43413;-33.790;150.826;2022-07-04T06:32:51;2.70;;;0.60;;
57577;SDS011;43413;-33.790;150.826;2022-07-04T06:35:20;2.83;;;0.95;;
57577;SDS011;43413;-33.790;150.826;2022-07-04T06:38:05;1.65;;;0.70;;
57577;SDS011;43413;-33.790;150.826;2022-07-04T06:40:33;2.22;;;0.70;;
57577;SDS011;43413;-33.790;150.826;2022-07-04T06:43:00;3.17;;;0.68;;
57577;SDS011;43413;-33.790;150.826;2022-07-04T06:45:27;4.25;;;0.80;;
57577;SDS011;43413;-33.790;150.826;2022-07-04T06:47:55;4.97;;;0.70;;
57577;SDS011;43413;-33.790;150.826;2022-07-04T06:50:22;1.45;;;0.40;;
57577;SDS011;43413;-33.790;150.826;2022-07-04T06:52:49;2.58;;;0.70;;
57577;SDS011;43413;-33.790;150.826;2022-07-04T06:55:17;2.72;;;0.70;;
57577;SDS011;43413;-33.790;150.826;2022-07-04T06:57:44;2.85;;;0.77;;
57577;SDS011;43413;-33.790;150.826;2022-07-04T07:00:12;3.13;;;0.90;;
57577;SDS011;43413;-33.790;150.826;2022-07-04T07:02:39;3.55;;;0.70;;
57577;SDS011;43413;-33.790;150.826;2022-07-04T07:05:07;7.13;;;1.00;;
57577;SDS011;43413;-33.790;150.826;2022-07-04T07:07:34;2.97;;;0.90;;
57577;SDS011;43413;-33.790;150.826;2022-07-04T07:10:01;4.72;;;0.98;;
57577;SDS011;43413;-33.790;150.826;2022-07-04T07:12:32;3.90;;;0.90;;
57577;SDS011;43413;-33.790;150.826;2022-07-04T07:14:59;3.78;;;0.90;;
57577;SDS011;43413;-33.790;150.826;2022-07-04T07:17:26;4.82;;;0.98;;
57577;SDS011;43413;-33.790;150.826;2022-07-04T07:19:53;3.28;;;0.80;;
57577;SDS011;43413;-33.790;150.826;2022-07-04T07:22:21;4.13;;;0.70;;
57577;SDS011;43413;-33.790;150.826;2022-07-04T07:24:48;8.40;;;1.13;;
57577;SDS011;43413;-33.790;150.826;2022-07-04T07:27:15;5.65;;;1.00;;
57577;SDS011;43413;-33.790;150.826;2022-07-04T07:29:42;4.43;;;0.60;;
57577;SDS011;43413;-33.790;150.826;2022-07-04T07:32:09;6.60;;;0.60;;
57577;SDS011;43413;-33.790;150.826;2022-07-04T07:34:36;8.52;;;0.80;;
57577;SDS011;43413;-33.790;150.826;2022-07-04T07:37:03;10.15;;;1.27;;
57577;SDS011;43413;-33.790;150.826;2022-07-04T07:39:31;11.10;;;1.00;;
57577;SDS011;43413;-33.790;150.826;2022-07-04T07:41:58;4.30;;;0.52;;
57577;SDS011;43413;-33.790;150.826;2022-07-04T07:44:25;6.82;;;0.68;;
57577;SDS011;43413;-33.790;150.826;2022-07-04T07:46:52;3.75;;;0.50;;
57577;SDS011;43413;-33.790;150.826;2022-07-04T07:49:19;7.40;;;0.68;;
57577;SDS011;43413;-33.790;150.826;2022-07-04T07:51:47;5.15;;;0.63;;
57577;SDS011;43413;-33.790;150.826;2022-07-04T07:54:14;1.45;;;0.50;;
57577;SDS011;43413;-33.790;150.826;2022-07-04T07:56:43;3.80;;;0.55;;
57577;SDS011;43413;-33.790;150.826;2022-07-04T07:59:10;4.88;;;0.77;;
57577;SDS011;43413;-33.790;150.826;2022-07-04T08:01:37;4.25;;;0.60;;
57577;SDS011;43413;-33.790;150.826;2022-07-04T08:04:05;5.00;;;0.80;;
57577;SDS011;43413;-33.790;150.826;2022-07-04T08:06:51;15.73;;;1.27;;
57577;SDS011;43413;-33.790;150.826;2022-07-04T08:09:18;5.28;;;1.00;;
57577;SDS011;43413;-33.790;150.826;2022-07-04T08:11:45;5.32;;;0.80;;
57577;SDS011;43413;-33.790;150.826;2022-07-04T08:14:13;4.35;;;0.70;;
57577;SDS011;43413;-33.790;150.826;2022-07-04T08:16:40;1.15;;;0.43;;
57577;SDS011;43413;-33.790;150.826;2022-07-04T08:19:07;13.77;;;0.80;;
57577;SDS011;43413;-33.790;150.826;2022-07-04T08:21:34;5.95;;;0.80;;
57577;SDS011;43413;-33.790;150.826;2022-07-04T08:24:01;6.60;;;0.70;;
57577;SDS011;43413;-33.790;150.826;2022-07-04T08:26:28;5.50;;;1.00;;
57577;SDS011;43413;-33.790;150.826;2022-07-04T08:28:56;6.72;;;1.40;;
57577;SDS011;43413;-33.790;150.826;2022-07-04T08:31:25;3.38;;;0.90;;
57577;SDS011;43413;-33.790;150.826;2022-07-04T08:33:53;4.78;;;1.20;;
57577;SDS011;43413;-33.790;150.826;2022-07-04T08:36:20;3.35;;;0.95;;
57577;SDS011;43413;-33.790;150.826;2022-07-04T08:38:47;3.65;;;1.00;;
57577;SDS011;43413;-33.790;150.826;2022-07-04T08:41:15;2.78;;;0.70;;
57577;SDS011;43413;-33.790;150.826;2022-07-04T08:43:42;1.60;;;0.70;;
57577;SDS011;43413;-33.790;150.826;2022-07-04T08:46:11;5.00;;;1.30;;
57577;SDS011;43413;-33.790;150.826;2022-07-04T08:48:40;4.85;;;1.42;;
57577;SDS011;43413;-33.790;150.826;2022-07-04T08:51:23;6.88;;;1.25;;
57577;SDS011;43413;-33.790;150.826;2022-07-04T08:53:52;4.53;;;1.20;;
57577;SDS011;43413;-33.790;150.826;2022-07-04T08:56:22;4.88;;;1.15;;
57577;SDS011;43413;-33.790;150.826;2022-07-04T08:59:09;8.77;;;1.40;;
57577;SDS011;43413;-33.790;150.826;2022-07-04T09:01:36;3.78;;;1.20;;
57577;SDS011;43413;-33.790;150.826;2022-07-04T09:04:06;5.38;;;0.98;;
57577;SDS011;43413;-33.790;150.826;2022-07-04T09:06:34;3.47;;;1.15;;
57577;SDS011;43413;-33.790;150.826;2022-07-04T09:09:01;3.30;;;0.68;;
57577;SDS011;43413;-33.790;150.826;2022-07-04T09:11:28;2.67;;;0.70;;
57577;SDS011;43413;-33.790;150.826;2022-07-04T09:13:56;2.03;;;0.82;;
57577;SDS011;43413;-33.790;150.826;2022-07-04T09:16:23;2.78;;;0.73;;
57577;SDS011;43413;-33.790;150.826;2022-07-04T09:18:51;3.85;;;0.77;;
57577;SDS011;43413;-33.790;150.826;2022-07-04T09:21:21;10.25;;;0.98;;
57577;SDS011;43413;-33.790;150.826;2022-07-04T09:23:50;6.72;;;1.10;;
57577;SDS011;43413;-33.790;150.826;2022-07-04T09:26:18;7.00;;;0.77;;
57577;SDS011;43413;-33.790;150.826;2022-07-04T09:28:58;6.07;;;0.82;;
57577;SDS011;43413;-33.790;150.826;2022-07-04T09:31:29;5.25;;;0.80;;
57577;SDS011;43413;-33.790;150.826;2022-07-04T09:33:57;9.00;;;0.75;;
57577;SDS011;43413;-33.790;150.826;2022-07-04T09:36:26;2.35;;;0.70;;
57577;SDS011;43413;-33.790;150.826;2022-07-04T09:41:49;3.35;;;0.70;;
57577;SDS011;43413;-33.790;150.826;2022-07-04T09:44:17;3.83;;;0.60;;
57577;SDS011;43413;-33.790;150.826;2022-07-04T09:46:44;3.17;;;0.90;;
57577;SDS011;43413;-33.790;150.826;2022-07-04T09:49:11;2.50;;;0.70;;
57577;SDS011;43413;-33.790;150.826;2022-07-04T09:51:40;4.85;;;0.70;;
57577;SDS011;43413;-33.790;150.826;2022-07-04T09:54:12;3.05;;;0.68;;
57577;SDS011;43413;-33.790;150.826;2022-07-04T09:56:39;3.30;;;0.70;;
57577;SDS011;43413;-33.790;150.826;2022-07-04T09:59:07;2.75;;;0.68;;
57577;SDS011;43413;-33.790;150.826;2022-07-04T10:01:34;2.85;;;0.50;;
57577;SDS011;43413;-33.790;150.826;2022-07-04T10:04:02;2.25;;;0.60;;
57577;SDS011;43413;-33.790;150.826;2022-07-04T10:06:31;2.92;;;0.57;;
57577;SDS011;43413;-33.790;150.826;2022-07-04T10:09:11;0.55;;;0.40;;
57577;SDS011;43413;-33.790;150.826;2022-07-04T10:11:39;1.80;;;0.60;;
57577;SDS011;43413;-33.790;150.826;2022-07-04T10:14:07;1.23;;;0.50;;
57577;SDS011;43413;-33.790;150.826;2022-07-04T10:16:35;2.67;;;0.65;;
57577;SDS011;43413;-33.790;150.826;2022-07-04T10:19:02;3.50;;;0.65;;
57577;SDS011;43413;-33.790;150.826;2022-07-04T10:21:30;2.33;;;0.60;;
57577;SDS011;43413;-33.790;150.826;2022-07-04T10:23:57;0.70;;;0.40;;
57577;SDS011;43413;-33.790;150.826;2022-07-04T10:26:25;2.55;;;0.47;;
57577;SDS011;43413;-33.790;150.826;2022-07-04T10:28:54;4.35;;;0.70;;
57577;SDS011;43413;-33.790;150.826;2022-07-04T10:31:23;2.45;;;0.55;;
57577;SDS011;43413;-33.790;150.826;2022-07-04T10:33:51;4.00;;;0.60;;
57577;SDS011;43413;-33.790;150.826;2022-07-04T10:36:20;4.88;;;0.60;;
57577;SDS011;43413;-33.790;150.826;2022-07-04T10:38:49;0.90;;;0.40;;
57577;SDS011;43413;-33.790;150.826;2022-07-04T10:41:17;3.40;;;0.60;;
57577;SDS011;43413;-33.790;150.826;2022-07-04T10:48:54;1.15;;;0.57;;
57577;SDS011;43413;-33.790;150.826;2022-07-04T10:54:11;1.80;;;0.60;;
57577;SDS011;43413;-33.790;150.826;2022-07-04T10:56:40;3.70;;;0.52;;
57577;SDS011;43413;-33.790;150.826;2022-07-04T10:59:17;1.95;;;0.60;;
57577;SDS011;43413;-33.790;150.826;2022-07-04T11:01:45;1.80;;;0.47;;
57577;SDS011;43413;-33.790;150.826;2022-07-04T11:04:13;3.05;;;0.60;;
57577;SDS011;43413;-33.790;150.826;2022-07-04T11:06:49;3.85;;;0.70;;
57577;SDS011;43413;-33.790;150.826;2022-07-04T11:09:23;4.30;;;0.65;;
57577;SDS011;43413;-33.790;150.826;2022-07-04T11:11:55;3.95;;;0.50;;
57577;SDS011;43413;-33.790;150.826;2022-07-04T11:16:59;5.07;;;0.60;;
57577;SDS011;43413;-33.790;150.826;2022-07-04T11:19:26;1.95;;;0.50;;
57577;SDS011;43413;-33.790;150.826;2022-07-04T11:21:54;3.90;;;0.70;;
57577;SDS011;43413;-33.790;150.826;2022-07-04T11:24:22;5.53;;;0.90;;
57577;SDS011;43413;-33.790;150.826;2022-07-04T11:26:49;3.35;;;0.75;;
57577;SDS011;43413;-33.790;150.826;2022-07-04T11:29:16;2.67;;;0.70;;
57577;SDS011;43413;-33.790;150.826;2022-07-04T11:31:47;1.83;;;0.60;;
57577;SDS011;43413;-33.790;150.826;2022-07-04T11:34:15;5.40;;;0.70;;
57577;SDS011;43413;-33.790;150.826;2022-07-04T11:36:43;3.92;;;0.70;;
57577;SDS011;43413;-33.790;150.826;2022-07-04T11:39:14;3.72;;;1.00;;
57577;SDS011;43413;-33.790;150.826;2022-07-04T11:41:49;1.73;;;0.65;;
57577;SDS011;43413;-33.790;150.826;2022-07-04T11:44:37;2.85;;;0.63;;
57577;SDS011;43413;-33.790;150.826;2022-07-04T11:47:24;3.15;;;0.70;;
57577;SDS011;43413;-33.790;150.826;2022-07-04T11:49:52;2.58;;;0.70;;
57577;SDS011;43413;-33.790;150.826;2022-07-04T11:52:20;2.03;;;0.65;;
57577;SDS011;43413;-33.790;150.826;2022-07-04T11:54:48;2.55;;;0.90;;
57577;SDS011;43413;-33.790;150.826;2022-07-04T11:59:43;2.53;;;0.50;;
57577;SDS011;43413;-33.790;150.826;2022-07-04T12:02:14;5.32;;;0.63;;
57577;SDS011;43413;-33.790;150.826;2022-07-04T12:04:42;4.32;;;0.63;;
57577;SDS011;43413;-33.790;150.826;2022-07-04T12:07:10;5.15;;;0.82;;
57577;SDS011;43413;-33.790;150.826;2022-07-04T12:09:37;2.20;;;0.70;;
57577;SDS011;43413;-33.790;150.826;2022-07-04T12:12:05;4.07;;;1.27;;
57577;SDS011;43413;-33.790;150.826;2022-07-04T12:14:32;4.10;;;0.93;;
57577;SDS011;43413;-33.790;150.826;2022-07-04T12:17:16;5.93;;;1.08;;
57577;SDS011;43413;-33.790;150.826;2022-07-04T12:19:56;2.42;;;0.80;;
57577;SDS011;43413;-33.790;150.826;2022-07-04T12:22:34;2.42;;;0.82;;
57577;SDS011;43413;-33.790;150.826;2022-07-04T12:25:02;5.97;;;0.93;;
57577;SDS011;43413;-33.790;150.826;2022-07-04T12:27:30;4.32;;;0.80;;
57577;SDS011;43413;-33.790;150.826;2022-07-04T12:29:57;4.65;;;1.00;;
57577;SDS011;43413;-33.790;150.826;2022-07-04T12:32:46;3.20;;;0.70;;
57577;SDS011;43413;-33.790;150.826;2022-07-04T12:35:33;6.13;;;1.15;;
57577;SDS011;43413;-33.790;150.826;2022-07-04T12:40:29;6.50;;;1.20;;
57577;SDS011;43413;-33.790;150.826;2022-07-04T12:42:57;10.13;;;1.05;;
57577;SDS011;43413;-33.790;150.826;2022-07-04T12:45:25;9.48;;;1.05;;
57577;SDS011;43413;-33.790;150.826;2022-07-04T12:47:52;6.32;;;1.38;;
57577;SDS011;43413;-33.790;150.826;2022-07-04T12:50:26;7.85;;;1.00;;
57577;SDS011;43413;-33.790;150.826;2022-07-04T12:52:54;4.43;;;1.10;;
57577;SDS011;43413;-33.790;150.826;2022-07-04T12:55:21;8.80;;;1.00;;
57577;SDS011;43413;-33.790;150.826;2022-07-04T12:57:48;6.82;;;1.02;;
57577;SDS011;43413;-33.790;150.826;2022-07-04T13:00:15;6.90;;;1.20;;
57577;SDS011;43413;-33.790;150.826;2022-07-04T13:02:43;7.45;;;1.35;;
57577;SDS011;43413;-33.790;150.826;2022-07-04T13:05:10;12.70;;;2.22;;
57577;SDS011;43413;-33.790;150.826;2022-07-04T13:07:37;8.18;;;1.27;;
57577;SDS011;43413;-33.790;150.826;2022-07-04T13:10:04;4.78;;;1.42;;
57577;SDS011;43413;-33.790;150.826;2022-07-04T13:12:31;7.60;;;1.50;;
57577;SDS011;43413;-33.790;150.826;2022-07-04T13:14:59;10.02;;;1.45;;
57577;SDS011;43413;-33.790;150.826;2022-07-04T13:17:26;6.35;;;1.30;;
57577;SDS011;43413;-33.790;150.826;2022-07-04T13:19:53;8.88;;;1.35;;
57577;SDS011;43413;-33.790;150.826;2022-07-04T13:22:21;13.35;;;1.63;;
57577;SDS011;43413;-33.790;150.826;2022-07-04T13:24:49;8.45;;;1.60;;
57577;SDS011;43413;-33.790;150.826;2022-07-04T13:27:17;14.00;;;2.03;;
57577;SDS011;43413;-33.790;150.826;2022-07-04T13:29:44;10.95;;;1.30;;
57577;SDS011;43413;-33.790;150.826;2022-07-04T13:32:12;8.80;;;1.30;;
57577;SDS011;43413;-33.790;150.826;2022-07-04T13:34:39;9.80;;;1.52;;
57577;SDS011;43413;-33.790;150.826;2022-07-04T13:37:06;11.90;;;1.30;;
57577;SDS011;43413;-33.790;150.826;2022-07-04T13:39:33;12.30;;;2.22;;
57577;SDS011;43413;-33.790;150.826;2022-07-04T13:42:00;12.05;;;1.60;;
57577;SDS011;43413;-33.790;150.826;2022-07-04T13:44:28;10.32;;;1.52;;
57577;SDS011;43413;-33.790;150.826;2022-07-04T13:46:55;12.02;;;1.73;;
57577;SDS011;43413;-33.790;150.826;2022-07-04T13:49:24;7.43;;;1.55;;
57577;SDS011;43413;-33.790;150.826;2022-07-04T13:51:51;13.63;;;1.63;;
57577;SDS011;43413;-33.790;150.826;2022-07-04T13:54:18;14.95;;;1.80;;
57577;SDS011;43413;-33.790;150.826;2022-07-04T13:56:46;15.93;;;2.28;;
57577;SDS011;43413;-33.790;150.826;2022-07-04T13:59:13;16.65;;;1.92;;
57577;SDS011;43413;-33.790;150.826;2022-07-04T14:01:40;9.95;;;1.33;;
57577;SDS011;43413;-33.790;150.826;2022-07-04T14:04:07;8.50;;;1.50;;
57577;SDS011;43413;-33.790;150.826;2022-07-04T14:06:34;11.68;;;1.60;;
57577;SDS011;43413;-33.790;150.826;2022-07-04T14:09:01;13.77;;;2.00;;
57577;SDS011;43413;-33.790;150.826;2022-07-04T14:11:29;13.90;;;1.75;;
57577;SDS011;43413;-33.790;150.826;2022-07-04T14:13:56;12.82;;;1.67;;
57577;SDS011;43413;-33.790;150.826;2022-07-04T14:16:23;14.57;;;1.70;;
57577;SDS011;43413;-33.790;150.826;2022-07-04T14:18:50;8.77;;;1.58;;
57577;SDS011;43413;-33.790;150.826;2022-07-04T14:21:17;12.90;;;1.75;;
57577;SDS011;43413;-33.790;150.826;2022-07-04T14:23:44;8.00;;;1.48;;
57577;SDS011;43413;-33.790;150.826;2022-07-04T14:26:12;15.07;;;1.92;;
57577;SDS011;43413;-33.790;150.826;2022-07-04T14:28:41;14.20;;;1.50;;
57577;SDS011;43413;-33.790;150.826;2022-07-04T14:31:10;9.18;;;1.20;;
57577;SDS011;43413;-33.790;150.826;2022-07-04T14:33:37;10.20;;;1.60;;